sensor_id;sensor_type;location;lat;lon;timestamp;temperature;humidity
52127;DHT22;38120;53.176;6.614;2023-02-28T00:00:41;4.00;99.90
52127;DHT22;38120;53.176;6.614;2023-02-28T00:03:08;4.00;99.90
52127;DHT22;38120;53.176;6.614;2023-02-28T00:05:34;4.50;99.90
52127;DHT22;38120;53.176;6.614;2023-02-28T00:07:59;4.00;99.90
52127;DHT22;38120;53.176;6.614;2023-02-28T00:10:29;4.00;99.90
52127;DHT22;38120;53.176;6.614;2023-02-28T00:12:55;4.00;99.90
52127;DHT22;38120;53.176;6.614;2023-02-28T00:15:22;4.00;99.90
52127;DHT22;38120;53.176;6.614;2023-02-28T00:17:48;4.00;99.90
52127;DHT22;38120;53.176;6.614;2023-02-28T00:20:14;4.10;99.90
52127;DHT22;38120;53.176;6.614;2023-02-28T00:22:40;4.00;99.90
52127;DHT22;38120;53.176;6.614;2023-02-28T00:25:06;4.00;99.90
52127;DHT22;38120;53.176;6.614;2023-02-28T00:27:32;4.00;99.90
52127;DHT22;38120;53.176;6.614;2023-02-28T00:29:58;4.00;99.90
52127;DHT22;38120;53.176;6.614;2023-02-28T00:32:24;3.90;99.90
52127;DHT22;38120;53.176;6.614;2023-02-28T00:34:49;3.90;99.90
52127;DHT22;38120;53.176;6.614;2023-02-28T00:37:15;3.90;99.90
52127;DHT22;38120;53.176;6.614;2023-02-28T00:39:40;3.90;99.90
52127;DHT22;38120;53.176;6.614;2023-02-28T00:42:06;3.90;99.90
52127;DHT22;38120;53.176;6.614;2023-02-28T00:44:32;4.30;99.90
52127;DHT22;38120;53.176;6.614;2023-02-28T00:46:58;3.90;99.90
52127;DHT22;38120;53.176;6.614;2023-02-28T00:49:24;3.90;99.90
52127;DHT22;38120;53.176;6.614;2023-02-28T00:51:50;3.90;99.90
52127;DHT22;38120;53.176;6.614;2023-02-28T00:54:16;4.00;99.90
52127;DHT22;38120;53.176;6.614;2023-02-28T00:56:41;4.00;99.90
52127;DHT22;38120;53.176;6.614;2023-02-28T00:59:07;3.90;99.90
52127;DHT22;38120;53.176;6.614;2023-02-28T01:01:33;3.90;99.90
52127;DHT22;38120;53.176;6.614;2023-02-28T01:03:59;4.00;99.90
52127;DHT22;38120;53.176;6.614;2023-02-28T01:06:24;3.90;99.90
52127;DHT22;38120;53.176;6.614;2023-02-28T01:08:50;5.20;99.90
52127;DHT22;38120;53.176;6.614;2023-02-28T01:11:16;5.40;99.90
52127;DHT22;38120;53.176;6.614;2023-02-28T01:13:42;4.00;99.90
52127;DHT22;38120;53.176;6.614;2023-02-28T01:16:08;4.60;99.90
52127;DHT22;38120;53.176;6.614;2023-02-28T01:18:35;4.10;99.90
52127;DHT22;38120;53.176;6.614;2023-02-28T01:21:04;5.50;99.90
52127;DHT22;38120;53.176;6.614;2023-02-28T01:23:30;4.10;99.90
52127;DHT22;38120;53.176;6.614;2023-02-28T01:25:56;4.20;99.90
52127;DHT22;38120;53.176;6.614;2023-02-28T01:28:21;4.10;99.90
52127;DHT22;38120;53.176;6.614;2023-02-28T01:30:47;4.00;99.90
52127;DHT22;38120;53.176;6.614;2023-02-28T01:33:14;5.00;99.90
52127;DHT22;38120;53.176;6.614;2023-02-28T01:35:40;5.00;99.90
52127;DHT22;38120;53.176;6.614;2023-02-28T01:38:05;4.40;99.90
52127;DHT22;38120;53.176;6.614;2023-02-28T01:40:31;4.10;99.90
52127;DHT22;38120;53.176;6.614;2023-02-28T01:42:56;4.20;99.90
52127;DHT22;38120;53.176;6.614;2023-02-28T01:45:24;4.10;99.90
52127;DHT22;38120;53.176;6.614;2023-02-28T01:47:52;5.00;99.90
52127;DHT22;38120;53.176;6.614;2023-02-28T01:50:20;4.50;99.90
52127;DHT22;38120;53.176;6.614;2023-02-28T01:52:46;4.10;99.90
52127;DHT22;38120;53.176;6.614;2023-02-28T01:55:13;4.40;99.90
52127;DHT22;38120;53.176;6.614;2023-02-28T01:57:45;4.20;99.90
52127;DHT22;38120;53.176;6.614;2023-02-28T02:00:15;4.20;99.90
52127;DHT22;38120;53.176;6.614;2023-02-28T02:02:45;4.20;99.90
52127;DHT22;38120;53.176;6.614;2023-02-28T02:05:15;4.20;99.90
52127;DHT22;38120;53.176;6.614;2023-02-28T02:07:42;4.20;99.90
52127;DHT22;38120;53.176;6.614;2023-02-28T02:10:16;4.30;99.90
52127;DHT22;38120;53.176;6.614;2023-02-28T02:15:18;4.30;99.90
52127;DHT22;38120;53.176;6.614;2023-02-28T02:17:48;4.20;99.90
52127;DHT22;38120;53.176;6.614;2023-02-28T02:23:02;4.20;99.90
52127;DHT22;38120;53.176;6.614;2023-02-28T02:25:43;4.20;99.90
52127;DHT22;38120;53.176;6.614;2023-02-28T02:36:30;4.30;99.90
52127;DHT22;38120;53.176;6.614;2023-02-28T02:39:13;4.30;99.90
52127;DHT22;38120;53.176;6.614;2023-02-28T02:41:47;3.60;99.90
52127;DHT22;38120;53.176;6.614;2023-02-28T02:46:42;4.20;99.90
52127;DHT22;38120;53.176;6.614;2023-02-28T02:49:09;4.30;99.90
52127;DHT22;38120;53.176;6.614;2023-02-28T02:51:38;4.40;99.90
52127;DHT22;38120;53.176;6.614;2023-02-28T02:54:08;4.20;99.90
52127;DHT22;38120;53.176;6.614;2023-02-28T02:56:34;4.20;99.90
52127;DHT22;38120;53.176;6.614;2023-02-28T02:59:01;4.20;99.90
52127;DHT22;38120;53.176;6.614;2023-02-28T03:01:27;4.30;99.90
52127;DHT22;38120;53.176;6.614;2023-02-28T03:03:58;4.20;99.90
52127;DHT22;38120;53.176;6.614;2023-02-28T03:06:25;4.20;99.90
52127;DHT22;38120;53.176;6.614;2023-02-28T03:08:50;4.40;99.90
52127;DHT22;38120;53.176;6.614;2023-02-28T03:11:16;4.10;99.90
52127;DHT22;38120;53.176;6.614;2023-02-28T03:13:44;4.10;99.90
52127;DHT22;38120;53.176;6.614;2023-02-28T03:18:54;4.10;99.90
52127;DHT22;38120;53.176;6.614;2023-02-28T03:21:40;4.00;99.90
52127;DHT22;38120;53.176;6.614;2023-02-28T03:24:13;4.00;99.90
52127;DHT22;38120;53.176;6.614;2023-02-28T03:26:45;3.90;99.90
52127;DHT22;38120;53.176;6.614;2023-02-28T03:29:23;3.90;99.90
52127;DHT22;38120;53.176;6.614;2023-02-28T03:32:10;3.90;99.90
52127;DHT22;38120;53.176;6.614;2023-02-28T03:34:42;3.80;99.90
52127;DHT22;38120;53.176;6.614;2023-02-28T03:37:12;3.90;99.90
52127;DHT22;38120;53.176;6.614;2023-02-28T03:39:46;4.00;99.90
52127;DHT22;38120;53.176;6.614;2023-02-28T03:42:20;3.80;99.90
52127;DHT22;38120;53.176;6.614;2023-02-28T03:44:57;3.70;99.90
52127;DHT22;38120;53.176;6.614;2023-02-28T03:49:57;3.70;99.90
52127;DHT22;38120;53.176;6.614;2023-02-28T03:52:25;3.70;99.90
52127;DHT22;38120;53.176;6.614;2023-02-28T03:54:53;3.70;99.90
52127;DHT22;38120;53.176;6.614;2023-02-28T03:57:26;3.70;99.90
52127;DHT22;38120;53.176;6.614;2023-02-28T03:59:59;3.60;99.90
52127;DHT22;38120;53.176;6.614;2023-02-28T04:02:25;3.60;99.90
52127;DHT22;38120;53.176;6.614;2023-02-28T04:04:51;3.80;99.90
52127;DHT22;38120;53.176;6.614;2023-02-28T04:07:17;3.60;99.90
52127;DHT22;38120;53.176;6.614;2023-02-28T04:09:43;3.60;99.90
52127;DHT22;38120;53.176;6.614;2023-02-28T04:12:08;3.60;99.90
52127;DHT22;38120;53.176;6.614;2023-02-28T04:14:34;3.50;99.90
52127;DHT22;38120;53.176;6.614;2023-02-28T04:16:59;3.60;99.90
52127;DHT22;38120;53.176;6.614;2023-02-28T04:19:25;3.50;99.90
52127;DHT22;38120;53.176;6.614;2023-02-28T04:21:51;3.90;99.90
52127;DHT22;38120;53.176;6.614;2023-02-28T04:24:18;3.40;99.90
52127;DHT22;38120;53.176;6.614;2023-02-28T04:26:45;3.50;99.90
52127;DHT22;38120;53.176;6.614;2023-02-28T04:29:11;3.40;99.90
52127;DHT22;38120;53.176;6.614;2023-02-28T04:31:38;3.40;99.90
52127;DHT22;38120;53.176;6.614;2023-02-28T04:34:04;3.40;99.90
52127;DHT22;38120;53.176;6.614;2023-02-28T04:36:30;3.30;99.90
52127;DHT22;38120;53.176;6.614;2023-02-28T04:38:55;3.30;99.90
52127;DHT22;38120;53.176;6.614;2023-02-28T04:41:21;3.40;99.90
52127;DHT22;38120;53.176;6.614;2023-02-28T04:43:47;3.30;99.90
52127;DHT22;38120;53.176;6.614;2023-02-28T04:46:13;3.30;99.90
52127;DHT22;38120;53.176;6.614;2023-02-28T04:48:39;3.80;99.90
52127;DHT22;38120;53.176;6.614;2023-02-28T04:51:06;3.20;99.90
52127;DHT22;38120;53.176;6.614;2023-02-28T04:53:32;3.40;99.90
52127;DHT22;38120;53.176;6.614;2023-02-28T04:55:57;3.10;99.90
52127;DHT22;38120;53.176;6.614;2023-02-28T04:58:23;3.20;99.90
52127;DHT22;38120;53.176;6.614;2023-02-28T05:00:49;3.10;99.90
52127;DHT22;38120;53.176;6.614;2023-02-28T05:03:15;3.10;99.90
52127;DHT22;38120;53.176;6.614;2023-02-28T05:05:40;3.20;99.90
52127;DHT22;38120;53.176;6.614;2023-02-28T05:08:06;3.30;99.90
52127;DHT22;38120;53.176;6.614;2023-02-28T05:10:31;3.10;99.90
52127;DHT22;38120;53.176;6.614;2023-02-28T05:12:57;3.10;99.90
52127;DHT22;38120;53.176;6.614;2023-02-28T05:15:23;3.40;99.90
52127;DHT22;38120;53.176;6.614;2023-02-28T05:17:48;3.00;99.90
52127;DHT22;38120;53.176;6.614;2023-02-28T05:20:14;3.90;99.90
52127;DHT22;38120;53.176;6.614;2023-02-28T05:22:40;3.00;99.90
52127;DHT22;38120;53.176;6.614;2023-02-28T05:25:06;2.90;99.90
52127;DHT22;38120;53.176;6.614;2023-02-28T05:27:32;3.00;99.90
52127;DHT22;38120;53.176;6.614;2023-02-28T05:29:58;3.00;99.90
52127;DHT22;38120;53.176;6.614;2023-02-28T05:32:24;3.00;99.90
52127;DHT22;38120;53.176;6.614;2023-02-28T05:34:49;2.90;99.90
52127;DHT22;38120;53.176;6.614;2023-02-28T05:37:15;2.90;99.90
52127;DHT22;38120;53.176;6.614;2023-02-28T05:39:41;2.90;99.90
52127;DHT22;38120;53.176;6.614;2023-02-28T05:42:06;2.90;99.90
52127;DHT22;38120;53.176;6.614;2023-02-28T05:44:32;2.90;99.90
52127;DHT22;38120;53.176;6.614;2023-02-28T05:46:58;2.90;99.90
52127;DHT22;38120;53.176;6.614;2023-02-28T05:49:23;2.90;99.90
52127;DHT22;38120;53.176;6.614;2023-02-28T05:51:49;2.80;99.90
52127;DHT22;38120;53.176;6.614;2023-02-28T05:54:14;2.80;99.90
52127;DHT22;38120;53.176;6.614;2023-02-28T05:56:40;3.40;99.90
52127;DHT22;38120;53.176;6.614;2023-02-28T05:59:09;2.80;99.90
52127;DHT22;38120;53.176;6.614;2023-02-28T06:01:39;4.10;99.90
52127;DHT22;38120;53.176;6.614;2023-02-28T06:04:06;2.90;99.90
52127;DHT22;38120;53.176;6.614;2023-02-28T06:06:32;2.90;99.90
52127;DHT22;38120;53.176;6.614;2023-02-28T06:09:03;3.00;99.90
52127;DHT22;38120;53.176;6.614;2023-02-28T06:11:28;2.80;99.90
52127;DHT22;38120;53.176;6.614;2023-02-28T06:13:54;2.80;99.90
52127;DHT22;38120;53.176;6.614;2023-02-28T06:16:21;2.80;99.90
52127;DHT22;38120;53.176;6.614;2023-02-28T06:18:46;2.80;99.90
52127;DHT22;38120;53.176;6.614;2023-02-28T06:21:12;2.80;99.90
52127;DHT22;38120;53.176;6.614;2023-02-28T06:23:38;2.80;99.90
52127;DHT22;38120;53.176;6.614;2023-02-28T06:26:04;2.80;99.90
52127;DHT22;38120;53.176;6.614;2023-02-28T06:28:30;2.80;99.90
52127;DHT22;38120;53.176;6.614;2023-02-28T06:30:55;3.00;99.90
52127;DHT22;38120;53.176;6.614;2023-02-28T06:33:21;2.80;99.90
52127;DHT22;38120;53.176;6.614;2023-02-28T06:35:47;2.70;99.90
52127;DHT22;38120;53.176;6.614;2023-02-28T06:38:15;2.70;99.90
52127;DHT22;38120;53.176;6.614;2023-02-28T06:40:41;2.70;99.90
52127;DHT22;38120;53.176;6.614;2023-02-28T06:43:06;2.70;99.90
52127;DHT22;38120;53.176;6.614;2023-02-28T06:45:32;2.60;99.90
52127;DHT22;38120;53.176;6.614;2023-02-28T06:47:58;2.70;99.90
52127;DHT22;38120;53.176;6.614;2023-02-28T06:50:25;2.40;99.90
52127;DHT22;38120;53.176;6.614;2023-02-28T06:52:52;2.50;99.90
52127;DHT22;38120;53.176;6.614;2023-02-28T06:55:19;2.50;99.90
52127;DHT22;38120;53.176;6.614;2023-02-28T06:57:45;2.50;99.90
52127;DHT22;38120;53.176;6.614;2023-02-28T07:00:10;2.50;99.90
52127;DHT22;38120;53.176;6.614;2023-02-28T07:02:36;2.50;99.90
52127;DHT22;38120;53.176;6.614;2023-02-28T07:05:03;2.40;99.90
52127;DHT22;38120;53.176;6.614;2023-02-28T07:07:29;2.50;99.90
52127;DHT22;38120;53.176;6.614;2023-02-28T07:09:55;2.50;99.90
52127;DHT22;38120;53.176;6.614;2023-02-28T07:12:21;3.10;99.90
52127;DHT22;38120;53.176;6.614;2023-02-28T07:14:47;2.50;99.90
52127;DHT22;38120;53.176;6.614;2023-02-28T07:17:13;2.90;99.90
52127;DHT22;38120;53.176;6.614;2023-02-28T07:19:39;2.50;99.90
52127;DHT22;38120;53.176;6.614;2023-02-28T07:22:05;2.50;99.90
52127;DHT22;38120;53.176;6.614;2023-02-28T07:24:31;2.40;99.90
52127;DHT22;38120;53.176;6.614;2023-02-28T07:26:56;2.70;99.90
52127;DHT22;38120;53.176;6.614;2023-02-28T07:29:22;2.40;99.90
52127;DHT22;38120;53.176;6.614;2023-02-28T07:31:48;2.40;99.90
52127;DHT22;38120;53.176;6.614;2023-02-28T07:34:15;2.50;99.90
52127;DHT22;38120;53.176;6.614;2023-02-28T07:36:41;2.60;99.90
52127;DHT22;38120;53.176;6.614;2023-02-28T07:39:10;2.40;99.90
52127;DHT22;38120;53.176;6.614;2023-02-28T07:41:35;2.90;99.90
52127;DHT22;38120;53.176;6.614;2023-02-28T07:44:09;2.60;99.90
52127;DHT22;38120;53.176;6.614;2023-02-28T07:46:35;2.60;99.90
52127;DHT22;38120;53.176;6.614;2023-02-28T07:49:01;2.60;99.90
52127;DHT22;38120;53.176;6.614;2023-02-28T07:51:28;2.70;99.90
52127;DHT22;38120;53.176;6.614;2023-02-28T07:53:54;2.70;99.90
52127;DHT22;38120;53.176;6.614;2023-02-28T07:56:20;2.70;99.90
52127;DHT22;38120;53.176;6.614;2023-02-28T07:58:45;2.70;99.90
52127;DHT22;38120;53.176;6.614;2023-02-28T08:01:11;3.10;99.90
52127;DHT22;38120;53.176;6.614;2023-02-28T08:03:38;2.60;99.90
52127;DHT22;38120;53.176;6.614;2023-02-28T08:06:04;2.70;99.90
52127;DHT22;38120;53.176;6.614;2023-02-28T08:08:29;2.70;99.90
52127;DHT22;38120;53.176;6.614;2023-02-28T08:11:00;2.80;99.90
52127;DHT22;38120;53.176;6.614;2023-02-28T08:13:26;2.90;99.90
52127;DHT22;38120;53.176;6.614;2023-02-28T08:15:53;2.90;99.90
52127;DHT22;38120;53.176;6.614;2023-02-28T08:18:19;3.00;99.90
52127;DHT22;38120;53.176;6.614;2023-02-28T08:20:44;3.00;99.90
52127;DHT22;38120;53.176;6.614;2023-02-28T08:23:10;3.10;99.90
52127;DHT22;38120;53.176;6.614;2023-02-28T08:25:36;3.30;99.90
52127;DHT22;38120;53.176;6.614;2023-02-28T08:28:01;3.40;99.90
52127;DHT22;38120;53.176;6.614;2023-02-28T08:30:27;3.40;99.90
52127;DHT22;38120;53.176;6.614;2023-02-28T08:32:52;3.40;99.90
52127;DHT22;38120;53.176;6.614;2023-02-28T08:35:18;3.40;99.90
52127;DHT22;38120;53.176;6.614;2023-02-28T08:37:44;3.30;99.90
52127;DHT22;38120;53.176;6.614;2023-02-28T08:40:10;3.40;99.90
52127;DHT22;38120;53.176;6.614;2023-02-28T08:42:36;3.50;99.90
52127;DHT22;38120;53.176;6.614;2023-02-28T08:45:02;3.60;99.90
52127;DHT22;38120;53.176;6.614;2023-02-28T08:47:27;4.80;99.90
52127;DHT22;38120;53.176;6.614;2023-02-28T08:49:53;3.50;99.90
52127;DHT22;38120;53.176;6.614;2023-02-28T08:52:18;3.50;99.90
52127;DHT22;38120;53.176;6.614;2023-02-28T08:54:44;3.50;99.90
52127;DHT22;38120;53.176;6.614;2023-02-28T08:57:10;3.60;99.90
52127;DHT22;38120;53.176;6.614;2023-02-28T08:59:35;3.60;99.90
52127;DHT22;38120;53.176;6.614;2023-02-28T09:02:01;3.70;99.90
52127;DHT22;38120;53.176;6.614;2023-02-28T09:04:26;3.80;99.90
52127;DHT22;38120;53.176;6.614;2023-02-28T09:06:52;3.70;99.90
52127;DHT22;38120;53.176;6.614;2023-02-28T09:09:18;4.00;99.90
52127;DHT22;38120;53.176;6.614;2023-02-28T09:11:43;4.60;99.90
52127;DHT22;38120;53.176;6.614;2023-02-28T09:14:09;2.30;99.90
52127;DHT22;38120;53.176;6.614;2023-02-28T09:16:35;4.10;99.90
52127;DHT22;38120;53.176;6.614;2023-02-28T09:19:00;4.00;99.90
52127;DHT22;38120;53.176;6.614;2023-02-28T09:21:27;4.10;99.90
52127;DHT22;38120;53.176;6.614;2023-02-28T09:23:52;5.10;99.90
52127;DHT22;38120;53.176;6.614;2023-02-28T09:26:22;4.40;99.90
52127;DHT22;38120;53.176;6.614;2023-02-28T09:28:48;4.50;99.90
52127;DHT22;38120;53.176;6.614;2023-02-28T09:31:15;4.40;99.90
52127;DHT22;38120;53.176;6.614;2023-02-28T09:33:40;4.40;99.90
52127;DHT22;38120;53.176;6.614;2023-02-28T09:36:06;4.30;99.90
52127;DHT22;38120;53.176;6.614;2023-02-28T09:38:32;4.30;99.90
52127;DHT22;38120;53.176;6.614;2023-02-28T09:40:59;4.40;99.90
52127;DHT22;38120;53.176;6.614;2023-02-28T09:43:26;4.40;99.90
52127;DHT22;38120;53.176;6.614;2023-02-28T09:46:02;4.30;99.90
52127;DHT22;38120;53.176;6.614;2023-02-28T09:48:35;4.30;99.90
52127;DHT22;38120;53.176;6.614;2023-02-28T09:51:03;4.30;99.90
52127;DHT22;38120;53.176;6.614;2023-02-28T09:53:33;4.40;99.90
52127;DHT22;38120;53.176;6.614;2023-02-28T09:56:10;4.40;99.90
52127;DHT22;38120;53.176;6.614;2023-02-28T09:58:47;4.50;99.90
52127;DHT22;38120;53.176;6.614;2023-02-28T10:03:43;4.60;99.90
52127;DHT22;38120;53.176;6.614;2023-02-28T10:06:19;4.70;99.90
52127;DHT22;38120;53.176;6.614;2023-02-28T10:11:16;4.50;99.90
52127;DHT22;38120;53.176;6.614;2023-02-28T10:13:50;4.50;99.90
52127;DHT22;38120;53.176;6.614;2023-02-28T10:22:10;4.70;99.90
52127;DHT22;38120;53.176;6.614;2023-02-28T10:24:35;5.30;99.90
52127;DHT22;38120;53.176;6.614;2023-02-28T10:27:21;4.80;99.90
52127;DHT22;38120;53.176;6.614;2023-02-28T10:29:51;4.90;99.90
52127;DHT22;38120;53.176;6.614;2023-02-28T10:32:18;5.10;99.90
52127;DHT22;38120;53.176;6.614;2023-02-28T10:34:44;5.30;99.90
52127;DHT22;38120;53.176;6.614;2023-02-28T10:37:13;5.30;99.90
52127;DHT22;38120;53.176;6.614;2023-02-28T10:39:40;5.30;99.90
52127;DHT22;38120;53.176;6.614;2023-02-28T10:42:18;5.40;99.90
52127;DHT22;38120;53.176;6.614;2023-02-28T10:44:43;5.50;99.90
52127;DHT22;38120;53.176;6.614;2023-02-28T10:47:18;5.40;99.90
52127;DHT22;38120;53.176;6.614;2023-02-28T10:49:48;5.50;99.90
52127;DHT22;38120;53.176;6.614;2023-02-28T10:52:14;5.50;99.90
52127;DHT22;38120;53.176;6.614;2023-02-28T10:55:13;5.50;99.90
52127;DHT22;38120;53.176;6.614;2023-02-28T10:57:39;5.90;99.90
52127;DHT22;38120;53.176;6.614;2023-02-28T11:00:11;5.60;99.90
52127;DHT22;38120;53.176;6.614;2023-02-28T11:02:38;5.50;99.90
52127;DHT22;38120;53.176;6.614;2023-02-28T11:05:24;5.70;99.90
52127;DHT22;38120;53.176;6.614;2023-02-28T11:07:54;5.60;99.90
52127;DHT22;38120;53.176;6.614;2023-02-28T11:10:21;5.70;99.90
52127;DHT22;38120;53.176;6.614;2023-02-28T11:12:49;5.70;99.90
52127;DHT22;38120;53.176;6.614;2023-02-28T11:15:24;5.80;99.90
52127;DHT22;38120;53.176;6.614;2023-02-28T11:17:54;5.70;99.90
52127;DHT22;38120;53.176;6.614;2023-02-28T11:20:22;5.80;99.90
52127;DHT22;38120;53.176;6.614;2023-02-28T11:22:48;5.80;99.90
52127;DHT22;38120;53.176;6.614;2023-02-28T11:25:25;5.90;99.90
52127;DHT22;38120;53.176;6.614;2023-02-28T11:27:52;5.70;99.90
52127;DHT22;38120;53.176;6.614;2023-02-28T11:30:25;5.80;99.90
52127;DHT22;38120;53.176;6.614;2023-02-28T11:32:51;5.80;99.90
52127;DHT22;38120;53.176;6.614;2023-02-28T11:35:18;5.80;99.90
52127;DHT22;38120;53.176;6.614;2023-02-28T11:37:47;6.30;99.90
52127;DHT22;38120;53.176;6.614;2023-02-28T11:40:17;6.10;99.90
52127;DHT22;38120;53.176;6.614;2023-02-28T11:42:50;6.20;99.90
52127;DHT22;38120;53.176;6.614;2023-02-28T11:45:21;6.10;99.90
52127;DHT22;38120;53.176;6.614;2023-02-28T11:56:06;6.40;99.90
52127;DHT22;38120;53.176;6.614;2023-02-28T12:06:20;6.20;99.90
52127;DHT22;38120;53.176;6.614;2023-02-28T12:08:49;6.10;99.90
52127;DHT22;38120;53.176;6.614;2023-02-28T12:11:40;6.10;99.90
52127;DHT22;38120;53.176;6.614;2023-02-28T12:22:27;6.20;99.90
52127;DHT22;38120;53.176;6.614;2023-02-28T12:25:29;6.30;99.90
52127;DHT22;38120;53.176;6.614;2023-02-28T12:27:47;6.30;99.90
52127;DHT22;38120;53.176;6.614;2023-02-28T12:30:16;6.50;99.90
52127;DHT22;38120;53.176;6.614;2023-02-28T12:32:45;6.80;99.90
52127;DHT22;38120;53.176;6.614;2023-02-28T12:35:12;6.90;99.90
52127;DHT22;38120;53.176;6.614;2023-02-28T12:40:21;7.00;99.90
52127;DHT22;38120;53.176;6.614;2023-02-28T12:42:49;7.10;99.90
52127;DHT22;38120;53.176;6.614;2023-02-28T12:45:23;7.10;99.90
52127;DHT22;38120;53.176;6.614;2023-02-28T12:47:54;7.10;99.90
52127;DHT22;38120;53.176;6.614;2023-02-28T12:50:20;7.30;99.90
52127;DHT22;38120;53.176;6.614;2023-02-28T12:52:59;7.20;1.00
52127;DHT22;38120;53.176;6.614;2023-02-28T12:55:45;7.20;1.00
52127;DHT22;38120;53.176;6.614;2023-02-28T12:58:22;7.40;99.90
52127;DHT22;38120;53.176;6.614;2023-02-28T13:01:54;7.60;1.00
52127;DHT22;38120;53.176;6.614;2023-02-28T13:06:45;7.80;99.90
52127;DHT22;38120;53.176;6.614;2023-02-28T13:09:17;7.70;99.90
52127;DHT22;38120;53.176;6.614;2023-02-28T13:14:18;7.90;1.00
52127;DHT22;38120;53.176;6.614;2023-02-28T13:16:54;7.80;1.00
52127;DHT22;38120;53.176;6.614;2023-02-28T13:19:20;7.60;99.90
52127;DHT22;38120;53.176;6.614;2023-02-28T13:21:47;7.50;99.90
52127;DHT22;38120;53.176;6.614;2023-02-28T13:24:36;7.50;99.90
52127;DHT22;38120;53.176;6.614;2023-02-28T13:29:36;7.40;99.90
52127;DHT22;38120;53.176;6.614;2023-02-28T13:34:31;7.30;99.90
52127;DHT22;38120;53.176;6.614;2023-02-28T13:47:36;7.50;98.70
52127;DHT22;38120;53.176;6.614;2023-02-28T14:06:38;7.90;1.00
52127;DHT22;38120;53.176;6.614;2023-02-28T14:08:42;7.60;1.00
52127;DHT22;38120;53.176;6.614;2023-02-28T14:11:23;7.40;1.00
52127;DHT22;38120;53.176;6.614;2023-02-28T14:13:49;7.30;1.00
52127;DHT22;38120;53.176;6.614;2023-02-28T14:16:27;7.10;1.00
52127;DHT22;38120;53.176;6.614;2023-02-28T14:19:26;6.90;1.00
52127;DHT22;38120;53.176;6.614;2023-02-28T14:24:31;6.70;1.00
52127;DHT22;38120;53.176;6.614;2023-02-28T14:32:35;6.60;89.10
52127;DHT22;38120;53.176;6.614;2023-02-28T14:37:44;6.80;1.00
52127;DHT22;38120;53.176;6.614;2023-02-28T14:42:55;7.00;1.00
52127;DHT22;38120;53.176;6.614;2023-02-28T14:45:21;7.10;1.00
52127;DHT22;38120;53.176;6.614;2023-02-28T14:47:48;7.20;1.00
52127;DHT22;38120;53.176;6.614;2023-02-28T14:50:18;7.30;1.00
52127;DHT22;38120;53.176;6.614;2023-02-28T14:52:45;7.20;1.00
52127;DHT22;38120;53.176;6.614;2023-02-28T14:55:12;7.30;1.00
52127;DHT22;38120;53.176;6.614;2023-02-28T14:57:40;7.30;1.00
52127;DHT22;38120;53.176;6.614;2023-02-28T15:00:10;7.20;1.00
52127;DHT22;38120;53.176;6.614;2023-02-28T15:02:38;7.10;1.00
52127;DHT22;38120;53.176;6.614;2023-02-28T15:07:39;6.70;1.00
52127;DHT22;38120;53.176;6.614;2023-02-28T15:10:13;6.70;1.00
52127;DHT22;38120;53.176;6.614;2023-02-28T15:12:41;6.60;1.00
52127;DHT22;38120;53.176;6.614;2023-02-28T15:15:14;6.60;1.00
52127;DHT22;38120;53.176;6.614;2023-02-28T15:17:40;6.30;1.00
52127;DHT22;38120;53.176;6.614;2023-02-28T15:20:10;6.30;1.00
52127;DHT22;38120;53.176;6.614;2023-02-28T15:22:37;6.30;1.00
52127;DHT22;38120;53.176;6.614;2023-02-28T15:25:03;6.30;1.00
52127;DHT22;38120;53.176;6.614;2023-02-28T15:27:31;6.40;1.00
52127;DHT22;38120;53.176;6.614;2023-02-28T15:29:59;6.70;1.00
52127;DHT22;38120;53.176;6.614;2023-02-28T15:32:32;6.60;1.00
52127;DHT22;38120;53.176;6.614;2023-02-28T15:34:59;6.70;1.00
52127;DHT22;38120;53.176;6.614;2023-02-28T15:39:50;6.70;1.00
52127;DHT22;38120;53.176;6.614;2023-02-28T15:42:20;6.70;99.90
52127;DHT22;38120;53.176;6.614;2023-02-28T15:44:46;6.70;99.90
52127;DHT22;38120;53.176;6.614;2023-02-28T15:47:19;6.60;99.90
52127;DHT22;38120;53.176;6.614;2023-02-28T15:49:47;6.60;99.90
52127;DHT22;38120;53.176;6.614;2023-02-28T15:52:16;6.50;1.00
52127;DHT22;38120;53.176;6.614;2023-02-28T15:54:43;6.50;1.00
52127;DHT22;38120;53.176;6.614;2023-02-28T15:57:17;6.40;1.00
52127;DHT22;38120;53.176;6.614;2023-02-28T15:59:49;6.30;1.00
52127;DHT22;38120;53.176;6.614;2023-02-28T16:02:16;6.20;1.00
52127;DHT22;38120;53.176;6.614;2023-02-28T16:07:21;6.00;1.00
52127;DHT22;38120;53.176;6.614;2023-02-28T16:09:47;6.20;7.10
52127;DHT22;38120;53.176;6.614;2023-02-28T16:12:13;6.00;60.90
52127;DHT22;38120;53.176;6.614;2023-02-28T16:14:39;6.00;95.80
52127;DHT22;38120;53.176;6.614;2023-02-28T16:17:07;5.90;99.90
52127;DHT22;38120;53.176;6.614;2023-02-28T16:19:34;6.00;99.90
52127;DHT22;38120;53.176;6.614;2023-02-28T16:22:00;5.90;99.90
52127;DHT22;38120;53.176;6.614;2023-02-28T16:24:26;5.90;99.90
52127;DHT22;38120;53.176;6.614;2023-02-28T16:26:52;5.90;99.90
52127;DHT22;38120;53.176;6.614;2023-02-28T16:29:26;5.90;99.90
52127;DHT22;38120;53.176;6.614;2023-02-28T16:31:53;5.80;99.90
52127;DHT22;38120;53.176;6.614;2023-02-28T16:34:19;6.10;99.90
52127;DHT22;38120;53.176;6.614;2023-02-28T16:36:46;5.80;99.90
52127;DHT22;38120;53.176;6.614;2023-02-28T16:39:11;5.60;99.90
52127;DHT22;38120;53.176;6.614;2023-02-28T16:41:37;6.60;99.90
52127;DHT22;38120;53.176;6.614;2023-02-28T16:44:02;5.40;1.00
52127;DHT22;38120;53.176;6.614;2023-02-28T16:46:35;5.40;1.00
52127;DHT22;38120;53.176;6.614;2023-02-28T16:49:01;5.20;29.80
52127;DHT22;38120;53.176;6.614;2023-02-28T16:51:27;5.10;99.90
52127;DHT22;38120;53.176;6.614;2023-02-28T16:53:52;5.00;99.90
52127;DHT22;38120;53.176;6.614;2023-02-28T16:56:19;4.90;99.90
52127;DHT22;38120;53.176;6.614;2023-02-28T16:58:45;5.90;99.90
52127;DHT22;38120;53.176;6.614;2023-02-28T17:01:11;4.80;1.00
52127;DHT22;38120;53.176;6.614;2023-02-28T17:03:36;4.70;1.00
52127;DHT22;38120;53.176;6.614;2023-02-28T17:06:03;3.40;1.00
52127;DHT22;38120;53.176;6.614;2023-02-28T17:08:29;4.60;1.00
52127;DHT22;38120;53.176;6.614;2023-02-28T17:10:55;5.00;22.40
52127;DHT22;38120;53.176;6.614;2023-02-28T17:13:20;4.50;98.80
52127;DHT22;38120;53.176;6.614;2023-02-28T17:15:46;4.30;99.90
52127;DHT22;38120;53.176;6.614;2023-02-28T17:18:15;4.40;99.90
52127;DHT22;38120;53.176;6.614;2023-02-28T17:20:41;4.10;99.90
52127;DHT22;38120;53.176;6.614;2023-02-28T17:23:07;4.00;99.90
52127;DHT22;38120;53.176;6.614;2023-02-28T17:25:33;3.90;99.90
52127;DHT22;38120;53.176;6.614;2023-02-28T17:27:58;3.80;99.90
52127;DHT22;38120;53.176;6.614;2023-02-28T17:30:25;4.50;99.90
52127;DHT22;38120;53.176;6.614;2023-02-28T17:32:53;3.70;99.90
52127;DHT22;38120;53.176;6.614;2023-02-28T17:35:18;3.70;99.90
52127;DHT22;38120;53.176;6.614;2023-02-28T17:37:44;3.50;99.90
52127;DHT22;38120;53.176;6.614;2023-02-28T17:40:14;3.40;99.90
52127;DHT22;38120;53.176;6.614;2023-02-28T17:42:40;3.40;99.90
52127;DHT22;38120;53.176;6.614;2023-02-28T17:45:05;3.30;99.90
52127;DHT22;38120;53.176;6.614;2023-02-28T17:47:31;3.20;99.90
52127;DHT22;38120;53.176;6.614;2023-02-28T17:49:57;3.70;99.90